Time;durP1;ratioP1;P1;durP2;ratioP2;P2;SDS_P1;SDS_P2;PMS_P1;PMS_P2;Temp;Humidity;BMP_temperature;BMP_pressure;BME280_temperature;BME280_humidity;BME280_pressure;Samples;Min_cycle;Max_cycle;Signal;HPM_P1;HPM_P2
2022/09/10 00:01:36;;;;;;;2.95;0.90;;;15.50;99.90;;;18.55;56.27;97450.66;5044626;28;20331;-54
2022/09/10 00:04:11;;;;;;;0.75;0.70;;;15.60;99.90;;;18.50;56.28;97451.31;5046267;28;20441;-56
2022/09/10 00:06:40;;;;;;;1.45;0.73;;;15.50;99.90;;;18.54;56.23;97449.84;5044259;28;20057;-57
2022/09/10 00:09:09;;;;;;;1.38;1.08;;;15.60;99.90;;;18.55;56.32;97443.41;5046871;28;20045;-57
2022/09/10 00:11:39;;;;;;;2.10;0.88;;;15.60;99.90;;;18.59;56.08;97441.09;5045955;28;20049;-55
2022/09/10 00:14:14;;;;;;;1.92;0.93;;;15.60;99.90;;;18.59;56.24;97435.69;5043675;28;20335;-57
2022/09/10 00:16:41;;;;;;;2.22;1.05;;;15.60;99.90;;;18.58;56.48;97434.06;5047479;28;20057;-55
2022/09/10 00:19:09;;;;;;;2.22;1.10;;;15.50;99.90;;;18.53;56.60;97426.63;5046248;28;20098;-55
2022/09/10 00:21:37;;;;;;;1.30;1.02;;;15.50;99.90;;;18.59;56.43;97441.94;5046524;28;20055;-56
2022/09/10 00:24:05;;;;;;;2.28;1.25;;;15.60;99.90;;;18.59;56.44;97439.25;5045199;28;20044;-54
2022/09/10 00:26:38;;;;;;;2.20;1.13;;;15.50;99.90;;;18.60;56.47;97442.75;5044122;28;20058;-56
2022/09/10 00:29:14;;;;;;;1.10;1.00;;;15.60;99.90;;;18.63;56.45;97437.78;5046033;28;20257;-53
2022/09/10 00:31:43;;;;;;;2.88;1.95;;;15.60;99.90;;;18.61;56.60;97444.41;5028141;28;20288;-57
2022/09/10 00:34:13;;;;;;;3.20;1.13;;;15.60;99.90;;;18.61;56.64;97447.09;5047320;28;20040;-51
2022/09/10 00:36:42;;;;;;;4.40;1.73;;;15.60;99.90;;;18.60;56.72;97462.44;5044337;28;20259;-55
2022/09/10 00:39:15;;;;;;;1.45;1.35;;;15.60;99.90;;;18.50;56.84;97460.22;5046019;28;20079;-56
2022/09/10 00:41:47;;;;;;;3.92;1.08;;;15.50;99.90;;;18.51;57.12;97450.25;5045768;28;20061;-51
2022/09/10 00:44:38;;;;;;;4.75;1.05;;;15.60;99.90;;;18.50;56.81;97440.53;5045326;28;20083;-54
2022/09/10 00:47:37;;;;;;;2.92;1.25;;;15.60;99.90;;;18.52;56.99;97441.16;5047680;28;20061;-56
2022/09/10 00:50:21;;;;;;;2.70;1.30;;;15.50;99.90;;;18.53;57.05;97434.69;5045547;28;20057;-54
2022/09/10 00:52:55;;;;;;;1.00;0.90;;;15.50;99.90;;;18.50;57.21;97444.06;5044677;28;20060;-56
2022/09/10 00:55:23;;;;;;;2.30;0.88;;;15.40;99.90;;;18.47;57.21;97443.66;5028858;28;20053;-54
2022/09/10 00:57:57;;;;;;;2.08;1.10;;;15.40;99.90;;;18.48;57.26;97454.22;5029345;28;20053;-57
2022/09/10 01:00:25;;;;;;;2.22;1.13;;;15.40;99.90;;;18.47;57.23;97457.94;5028218;28;20063;-55
2022/09/10 01:02:54;;;;;;;4.15;1.23;;;15.40;99.90;;;18.53;57.14;97450.88;5045922;28;20369;-56
2022/09/10 01:05:23;;;;;;;2.58;0.93;;;15.50;99.90;;;18.50;57.17;97456.72;5044742;28;20045;-53
2022/09/10 01:07:51;;;;;;;0.88;0.80;;;15.50;99.90;;;18.50;57.35;97454.84;5027908;28;20052;-54
2022/09/10 01:10:33;;;;;;;4.80;1.48;;;15.40;99.90;;;18.52;57.04;97453.81;5026954;28;20056;-53
2022/09/10 01:13:38;;;;;;;3.30;0.82;;;15.50;99.90;;;18.47;57.02;97449.88;5044965;28;20045;-51
2022/09/10 01:16:47;;;;;;;3.15;1.35;;;15.50;99.90;;;18.45;57.13;97464.63;5044876;28;20247;-56
2022/09/10 01:19:55;;;;;;;3.05;1.27;;;15.50;99.90;;;18.43;57.45;97474.78;5028151;28;20057;-51
2022/09/10 01:23:05;;;;;;;3.45;1.20;;;15.50;99.90;;;18.35;57.64;97467.78;5045148;28;20063;-57
2022/09/10 01:26:30;;;;;;;2.67;1.35;;;15.40;99.90;;;18.36;57.39;97458.66;5028677;28;20060;-51
2022/09/10 01:29:28;;;;;;;2.95;1.33;;;15.30;99.90;;;18.23;57.76;97448.75;5030098;28;20240;-57
2022/09/10 01:32:26;;;;;;;1.77;0.95;;;15.20;99.90;;;18.28;57.62;97445.41;5046738;28;20049;-57
2022/09/10 01:35:35;;;;;;;4.10;1.40;;;15.20;99.90;;;18.22;57.85;97457.06;5044496;28;20063;-55
2022/09/10 01:38:14;;;;;;;1.70;1.20;;;15.30;99.90;;;18.10;57.79;97449.66;5031642;28;20049;-56
2022/09/10 01:40:43;;;;;;;1.65;1.00;;;15.10;99.90;;;18.13;58.00;97448.41;5031556;28;20059;-57
2022/09/10 01:43:15;;;;;;;2.20;1.00;;;15.20;99.90;;;18.09;57.93;97447.19;5031869;28;20049;-56
2022/09/10 01:46:20;;;;;;;1.25;1.00;;;15.10;99.90;;;18.15;57.81;97442.81;5047557;28;20065;-55
2022/09/10 01:49:28;;;;;;;1.15;0.85;;;15.20;99.90;;;18.17;57.69;97438.03;5033967;28;20519;-55
2022/09/10 01:52:21;;;;;;;0.95;0.93;;;15.10;99.90;;;18.09;57.66;97436.41;5047346;28;20063;-55
2022/09/10 01:55:04;;;;;;;2.00;1.15;;;15.10;99.90;;;18.18;57.69;97436.97;5030091;28;20057;-55
2022/09/10 01:57:56;;;;;;;3.88;1.17;;;15.10;99.90;;;18.12;57.84;97429.75;5047667;28;20240;-56
2022/09/10 02:00:33;;;;;;;2.40;0.90;;;15.00;99.90;;;18.10;57.98;97429.97;5032949;28;20064;-57
2022/09/10 02:03:10;;;;;;;2.60;1.00;;;15.00;99.90;;;18.13;58.11;97432.25;5031519;28;20065;-57
2022/09/10 02:05:41;;;;;;;1.15;0.88;;;15.10;99.90;;;18.11;58.22;97437.03;5047086;28;20056;-53
2022/09/10 02:08:27;;;;;;;2.80;0.95;;;15.10;99.90;;;18.13;58.05;97434.13;5031965;28;20364;-54
2022/09/10 02:11:05;;;;;;;1.50;1.15;;;15.10;99.90;;;18.12;58.15;97427.06;5031817;28;20051;-56
2022/09/10 02:13:37;;;;;;;2.03;0.90;;;15.10;99.90;;;18.10;58.46;97424.59;5032796;28;20045;-54
2022/09/10 02:16:33;;;;;;;5.28;1.13;;;15.00;99.90;;;18.07;58.36;97423.16;5047455;28;20315;-56
2022/09/10 02:19:02;;;;;;;4.40;1.30;;;15.00;99.90;;;18.08;58.90;97424.78;5047404;28;20061;-57
2022/09/10 02:21:32;;;;;;;1.25;0.90;;;15.00;99.90;;;18.12;58.71;97421.69;5048495;28;20501;-55
2022/09/10 02:24:08;;;;;;;2.30;1.20;;;15.00;99.90;;;18.12;58.78;97430.56;5048484;28;20049;-56
2022/09/10 02:26:40;;;;;;;2.75;1.95;;;15.10;99.90;;;18.12;58.73;97433.28;5015793;28;20057;-57
2022/09/10 02:29:12;;;;;;;2.70;1.17;;;15.00;99.90;;;18.11;58.94;97431.63;5047786;28;20045;-57
2022/09/10 02:31:42;;;;;;;1.95;0.95;;;15.00;99.90;;;18.10;58.96;97433.47;5030983;28;20258;-56
2022/09/10 02:34:14;;;;;;;2.60;1.13;;;15.00;99.90;;;18.12;58.88;97427.88;5046855;28;20075;-56
2022/09/10 02:36:45;;;;;;;3.33;1.10;;;15.00;99.90;;;18.13;58.50;97431.44;5047211;28;20053;-56
2022/09/10 02:39:14;;;;;;;1.00;1.00;;;15.00;99.90;;;18.11;58.99;97431.63;5031720;28;20296;-54
2022/09/10 02:41:42;;;;;;;2.17;1.10;;;15.00;99.90;;;18.14;58.58;97428.50;5046226;28;20049;-57
2022/09/10 02:44:10;;;;;;;2.10;1.80;;;15.10;99.90;;;18.17;58.92;97433.47;5045911;28;20052;-57
2022/09/10 02:46:38;;;;;;;2.63;1.20;;;15.10;99.90;;;18.20;58.65;97424.94;5047580;28;20052;-56
2022/09/10 02:49:06;;;;;;;3.25;0.93;;;15.10;99.90;;;18.20;58.77;97419.56;5029690;28;20068;-57
2022/09/10 02:51:37;;;;;;;3.17;1.20;;;15.10;99.90;;;18.21;58.94;97417.69;5046497;28;20127;-57
2022/09/10 02:54:07;;;;;;;1.85;1.00;;;15.10;99.90;;;18.20;58.81;97422.25;5045473;28;20071;-57
2022/09/10 02:56:35;;;;;;;2.85;1.20;;;15.10;99.90;;;18.18;58.89;97416.25;5030141;28;20059;-57
2022/09/10 02:59:03;;;;;;;1.90;1.15;;;15.10;99.90;;;18.16;58.79;97418.31;5028564;28;20057;-54
2022/09/10 03:01:33;;;;;;;2.58;1.15;;;15.10;99.90;;;18.17;58.82;97411.91;5029808;28;20079;-56
2022/09/10 03:04:04;;;;;;;1.77;1.10;;;15.10;99.90;;;18.15;58.89;97415.88;5045917;28;20057;-58
2022/09/10 03:06:32;;;;;;;2.00;1.13;;;15.10;99.90;;;18.14;59.09;97417.72;5030374;28;20257;-57
2022/09/10 03:09:01;;;;;;;2.40;0.95;;;15.10;99.90;;;18.14;59.05;97406.94;5046694;28;20047;-56
2022/09/10 03:11:30;;;;;;;2.08;1.20;;;15.10;99.90;;;18.12;59.13;97405.50;5047460;28;20241;-55
2022/09/10 03:13:58;;;;;;;2.25;0.95;;;15.10;99.90;;;18.10;59.25;97408.41;5028977;28;20410;-55
2022/09/10 03:16:28;;;;;;;2.72;1.10;;;15.00;99.90;;;18.13;59.35;97416.09;5046761;28;20049;-55
2022/09/10 03:18:56;;;;;;;1.35;0.93;;;15.10;99.90;;;18.13;59.15;97417.97;5030490;28;20059;-57
2022/09/10 03:21:24;;;;;;;1.67;1.33;;;15.10;99.90;;;18.15;59.26;97423.97;5046242;28;20049;-57
2022/09/10 03:23:54;;;;;;;1.15;0.85;;;15.10;99.90;;;18.18;59.07;97418.94;5045488;28;20049;-56
2022/09/10 03:26:26;;;;;;;1.48;1.10;;;15.10;99.90;;;18.18;59.10;97418.13;5031094;28;20700;-56
2022/09/10 03:28:55;;;;;;;1.08;0.88;;;15.10;99.90;;;18.16;58.95;97417.50;5048140;28;20057;-53
2022/09/10 03:31:29;;;;;;;2.58;1.10;;;15.10;99.90;;;18.20;59.04;97418.72;5045881;28;20051;-57
2022/09/10 03:33:58;;;;;;;2.20;0.82;;;15.20;99.90;;;18.22;58.90;97411.25;5045924;28;20045;-54
2022/09/10 03:36:30;;;;;;;1.23;0.93;;;15.20;99.90;;;18.21;59.02;97406.94;5045348;28;20053;-54
2022/09/10 03:38:59;;;;;;;1.55;1.00;;;15.10;99.90;;;18.19;58.96;97417.09;5045750;28;20052;-55
2022/09/10 03:41:30;;;;;;;1.58;1.17;;;15.10;99.90;;;18.17;58.87;97413.78;5045930;28;20041;-55
2022/09/10 03:43:59;;;;;;;1.02;0.95;;;15.10;99.90;;;18.19;59.00;97420.59;5047182;28;20254;-56
2022/09/10 03:46:27;;;;;;;1.90;1.20;;;15.10;99.90;;;18.21;59.06;97420.41;5045387;28;20057;-57
2022/09/10 03:49:01;;;;;;;1.40;1.00;;;15.10;99.90;;;18.19;59.04;97411.72;5029453;28;20051;-57
2022/09/10 03:51:30;;;;;;;2.53;1.20;;;15.10;99.90;;;18.22;59.07;97422.03;5046816;28;20067;-55
2022/09/10 03:53:58;;;;;;;2.75;1.30;;;15.20;99.90;;;18.23;58.76;97416.44;5046826;28;20063;-53
2022/09/10 03:56:27;;;;;;;2.33;0.90;;;15.20;99.90;;;18.22;58.85;97414.81;5044481;28;20371;-55
2022/09/10 03:58:56;;;;;;;1.70;0.98;;;15.20;99.90;;;18.24;58.71;97411.88;5028868;28;20063;-57
2022/09/10 04:01:26;;;;;;;1.45;1.00;;;15.20;99.90;;;18.21;58.79;97415.81;5044586;28;20056;-56
2022/09/10 04:03:55;;;;;;;1.35;0.98;;;15.20;99.90;;;18.19;58.93;97407.13;5028091;28;20095;-58
2022/09/10 04:06:25;;;;;;;1.95;1.23;;;15.20;99.90;;;18.22;58.79;97413.94;5046165;28;20351;-57
2022/09/10 04:08:55;;;;;;;1.60;0.93;;;15.20;99.90;;;18.21;58.57;97415.81;5046309;28;20255;-57
2022/09/10 04:11:26;;;;;;;2.03;1.00;;;15.20;99.90;;;18.23;58.65;97411.03;5046784;28;20063;-55
2022/09/10 04:13:55;;;;;;;1.23;0.77;;;15.20;99.90;;;18.25;58.52;97419.75;5029318;28;20066;-56
2022/09/10 04:16:24;;;;;;;1.50;0.93;;;15.20;99.90;;;18.21;58.42;97421.22;5028962;28;20048;-55
2022/09/10 04:18:53;;;;;;;2.10;0.93;;;15.20;99.90;;;18.22;58.58;97420.19;5046369;28;20067;-54
2022/09/10 04:21:22;;;;;;;1.50;1.20;;;15.20;99.90;;;18.20;58.70;97419.56;5028426;28;20053;-56
2022/09/10 04:23:55;;;;;;;2.45;1.17;;;15.20;99.90;;;18.16;58.60;97420.22;5046177;28;20048;-56
2022/09/10 04:26:25;;;;;;;6.38;1.27;;;15.20;99.90;;;18.15;58.70;97419.38;5046373;28;20043;-56
2022/09/10 04:28:53;;;;;;;1.90;1.58;;;15.10;99.90;;;18.16;58.66;97417.50;5045600;28;20048;-57
2022/09/10 04:31:21;;;;;;;1.20;1.10;;;15.10;99.90;;;18.18;58.68;97427.03;5044865;28;20032;-56
2022/09/10 04:33:52;;;;;;;1.80;1.23;;;15.10;99.90;;;18.13;58.94;97420.66;5045663;28;20053;-56
2022/09/10 04:36:24;;;;;;;1.10;1.00;;;15.10;99.90;;;18.12;58.88;97419.81;5030601;28;20056;-57
2022/09/10 04:38:57;;;;;;;5.90;2.35;;;15.10;99.90;;;18.07;58.88;97423.16;5045108;28;20064;-57
2022/09/10 04:41:26;;;;;;;1.42;1.00;;;15.00;99.90;;;18.10;58.79;97424.59;5044665;28;20048;-57
2022/09/10 04:43:54;;;;;;;2.70;1.48;;;15.00;99.90;;;18.01;58.93;97431.25;5044485;28;20314;-57
2022/09/10 04:46:23;;;;;;;2.28;1.02;;;15.00;99.90;;;18.05;59.03;97433.31;5027396;28;20079;-56
2022/09/10 04:48:53;;;;;;;2.38;1.40;;;15.10;99.90;;;18.07;58.71;97433.94;5044955;28;20053;-56
2022/09/10 04:51:23;;;;;;;1.70;1.00;;;15.10;99.90;;;18.06;58.77;97428.75;5044616;28;20055;-56
2022/09/10 04:53:53;;;;;;;3.10;1.27;;;15.10;99.90;;;18.12;58.62;97441.34;5044194;28;20063;-56
2022/09/10 04:56:26;;;;;;;1.17;0.90;;;15.20;99.90;;;18.17;58.48;97440.72;5028247;28;20131;-56
2022/09/10 04:58:54;;;;;;;1.30;1.20;;;15.20;99.90;;;18.24;58.32;97445.03;5043750;28;20040;-54
2022/09/10 05:01:30;;;;;;;2.97;1.23;;;15.30;99.90;;;18.27;58.24;97441.91;5044700;28;20063;-54
2022/09/10 05:03:57;;;;;;;1.02;0.93;;;15.30;99.90;;;18.26;58.23;97444.81;5044881;28;20220;-55
2022/09/10 05:06:25;;;;;;;1.10;0.90;;;15.20;99.90;;;18.26;58.48;97447.50;5045671;28;20057;-56
2022/09/10 05:08:54;;;;;;;3.10;1.20;;;15.20;99.90;;;18.25;58.29;97440.47;5044947;28;20688;-56
2022/09/10 05:11:22;;;;;;;1.50;1.00;;;15.20;99.90;;;18.24;58.66;97441.50;5046459;28;20045;-56
2022/09/10 05:13:51;;;;;;;1.75;1.00;;;15.20;99.90;;;18.25;58.71;97445.88;5048623;28;20053;-55
2022/09/10 05:16:22;;;;;;;1.58;1.00;;;15.20;99.90;;;18.24;58.64;97449.59;5032227;28;20057;-53
2022/09/10 05:18:49;;;;;;;3.17;1.00;;;15.20;99.90;;;18.17;58.87;97455.03;5051043;28;20066;-57
2022/09/10 05:21:18;;;;;;;1.00;0.90;;;15.20;99.90;;;18.17;58.83;97448.81;5050434;28;20369;-56
2022/09/10 05:23:46;;;;;;;1.33;1.17;;;15.10;99.90;;;18.18;58.80;97451.25;5031173;28;20589;-53
2022/09/10 05:26:14;;;;;;;2.97;1.40;;;15.10;99.90;;;18.18;59.11;97448.56;5031084;28;20053;-53
2022/09/10 05:28:42;;;;;;;1.20;1.05;;;15.10;99.90;;;18.18;58.89;97456.66;5048282;28;20049;-56
2022/09/10 05:31:15;;;;;;;1.88;1.20;;;15.20;99.90;;;18.21;58.81;97448.16;5049237;28;20067;-54
2022/09/10 05:33:45;;;;;;;3.13;1.10;;;15.20;99.90;;;18.21;58.71;97455.41;5048714;28;20063;-54
2022/09/10 05:36:13;;;;;;;1.92;1.17;;;15.20;99.90;;;18.15;58.94;97446.31;5048314;28;20266;-55
2022/09/10 05:38:45;;;;;;;2.30;1.20;;;15.20;99.90;;;18.15;58.77;97458.97;5032434;28;20075;-52
2022/09/10 05:41:15;;;;;;;4.93;1.42;;;15.10;99.90;;;18.15;58.97;97456.28;5048304;28;20071;-55
2022/09/10 05:43:47;;;;;;;5.97;1.08;;;15.20;99.90;;;18.17;58.61;97446.94;5049038;28;20055;-52
2022/09/10 05:46:15;;;;;;;1.15;0.90;;;15.20;99.90;;;18.20;58.63;97442.97;5048130;28;20056;-51
2022/09/10 05:48:47;;;;;;;2.10;1.20;;;15.20;99.90;;;18.24;58.37;97438.81;5048868;28;20061;-56
2022/09/10 05:51:17;;;;;;;1.00;0.90;;;15.30;99.90;;;18.24;58.26;97438.81;5031416;28;20061;-57
2022/09/10 05:53:46;;;;;;;3.13;1.20;;;15.30;99.90;;;18.25;58.15;97441.28;5048092;28;20580;-57
2022/09/10 05:56:14;;;;;;;1.35;0.85;;;15.40;99.90;;;18.23;58.19;97438.00;5031699;28;20045;-55
2022/09/10 05:58:44;;;;;;;1.10;0.82;;;15.40;99.90;;;18.24;58.23;97441.50;5046084;28;20045;-56
2022/09/10 06:01:14;;;;;;;1.65;1.20;;;15.30;99.90;;;18.22;58.28;97446.28;5048789;28;20064;-54
2022/09/10 06:03:43;;;;;;;1.20;0.95;;;15.30;99.90;;;18.27;58.07;97449.16;5047752;28;20063;-56
2022/09/10 06:06:11;;;;;;;1.15;0.88;;;15.40;99.90;;;18.27;57.98;97444.59;5049469;28;20049;-54
2022/09/10 06:08:43;;;;;;;1.73;1.42;;;15.40;99.90;;;18.26;57.88;97456.44;5032216;28;20056;-56
2022/09/10 06:11:21;;;;;;;1.00;1.00;;;15.40;99.90;;;18.25;58.08;97453.94;5046424;28;20056;-57
2022/09/10 06:13:50;;;;;;;1.60;0.88;;;15.40;99.90;;;18.25;58.09;97453.94;5046048;28;20047;-60
2022/09/10 06:16:19;;;;;;;0.88;0.85;;;15.40;99.90;;;18.29;58.09;97457.88;5047295;28;20346;-58
2022/09/10 06:18:47;;;;;;;3.42;1.02;;;15.40;99.90;;;18.33;58.30;97463.66;5047394;28;20269;-58
2022/09/10 06:21:20;;;;;;;1.67;1.08;;;15.50;99.90;;;18.37;58.17;97467.56;5047396;28;20467;-57
2022/09/10 06:23:55;;;;;;;1.10;0.95;;;15.50;99.90;;;18.42;57.99;97460.50;5046199;28;20061;-56
2022/09/10 06:26:25;;;;;;;3.13;1.20;;;15.50;99.90;;;18.42;57.78;97470.44;5046902;28;20059;-58
2022/09/10 06:28:57;;;;;;;1.90;1.00;;;15.50;99.90;;;18.45;57.85;97467.31;5048248;28;20351;-53
2022/09/10 06:31:25;;;;;;;2.08;1.10;;;15.50;99.90;;;18.48;57.95;97477.66;5047683;28;20164;-53
2022/09/10 06:33:54;;;;;;;2.42;0.93;;;15.60;99.90;;;18.46;57.93;97472.50;5045188;28;20402;-57
2022/09/10 06:36:27;;;;;;;1.35;1.10;;;15.50;99.90;;;18.49;57.81;97465.84;5030881;28;20061;-56
2022/09/10 06:38:56;;;;;;;1.95;0.95;;;15.60;99.90;;;18.49;57.87;97466.69;5046663;28;20053;-55
2022/09/10 06:41:25;;;;;;;1.38;1.00;;;15.60;99.90;;;18.47;57.89;97466.03;5048111;28;20139;-56
2022/09/10 06:44:11;;;;;;;1.05;0.80;;;15.60;99.90;;;18.55;57.76;97469.53;5047849;28;20061;-56
2022/09/10 06:46:51;;;;;;;1.85;1.10;;;15.60;99.90;;;18.60;57.76;97472.41;5031275;28;20065;-58
2022/09/10 06:49:39;;;;;;;2.22;1.42;;;15.70;99.90;;;18.69;57.96;97471.13;5047344;28;20057;-58
2022/09/10 06:52:10;;;;;;;2.22;0.90;;;15.80;99.90;;;18.74;58.01;97478.53;5031407;28;20044;-58
2022/09/10 06:54:39;;;;;;;1.20;0.95;;;15.80;99.90;;;18.80;57.72;97473.13;5030007;28;20236;-57
2022/09/10 06:57:32;;;;;;;1.80;1.20;;;15.90;99.90;;;18.90;57.41;97478.03;5046211;28;20064;-58
2022/09/10 07:00:03;;;;;;;1.88;0.80;;;15.90;99.90;;;18.94;57.22;97489.22;5031081;28;20045;-60
2022/09/10 07:02:31;;;;;;;3.05;1.15;;;15.90;99.90;;;18.95;57.52;97494.41;5045869;28;20057;-57
2022/09/10 07:04:59;;;;;;;1.40;0.90;;;15.90;99.90;;;18.91;57.69;97495.88;5046265;28;20059;-59
2022/09/10 07:07:31;;;;;;;1.38;1.08;;;15.90;99.90;;;18.87;58.00;97500.88;5046846;28;20057;-58
2022/09/10 07:10:00;;;;;;;1.58;1.10;;;15.80;99.90;;;18.94;58.01;97495.47;5046294;28;20358;-60
2022/09/10 07:12:28;;;;;;;1.80;1.35;;;15.90;99.90;;;19.03;57.95;97498.72;5046360;28;20365;-58
2022/09/10 07:14:56;;;;;;;2.15;1.00;;;16.00;99.90;;;19.03;57.97;97496.00;5047545;28;20047;-57
2022/09/10 07:17:25;;;;;;;2.30;1.20;;;16.10;99.90;;;19.16;58.00;97504.00;5030458;28;20049;-54
2022/09/10 07:19:59;;;;;;;4.32;1.10;;;16.20;99.90;;;19.27;57.85;97508.69;5029029;28;20057;-52
2022/09/10 07:22:38;;;;;;;1.48;1.10;;;16.30;99.90;;;19.38;57.65;97501.75;5031452;28;20053;-59
2022/09/10 07:25:09;;;;;;;2.40;1.10;;;16.40;99.90;;;19.48;57.06;97504.78;5045766;28;20072;-59
2022/09/10 07:27:52;;;;;;;2.85;1.50;;;16.50;99.90;;;19.57;56.89;97507.19;5046670;28;20057;-59
2022/09/10 07:30:21;;;;;;;1.08;0.88;;;16.60;99.90;;;19.58;56.81;97516.94;5029331;28;20061;-58
2022/09/10 07:32:50;;;;;;;1.23;1.10;;;16.60;99.90;;;19.67;57.33;97515.59;5046115;28;20053;-59
2022/09/10 07:35:22;;;;;;;4.45;1.23;;;16.80;99.90;;;19.71;57.04;97524.09;5045278;28;20057;-59
2022/09/10 07:37:50;;;;;;;2.25;0.93;;;16.80;99.90;;;19.77;56.66;97528.63;5046773;28;20435;-59
2022/09/10 07:40:22;;;;;;;0.90;0.90;;;16.90;99.90;;;19.82;56.28;97531.50;5029305;28;20059;-59
2022/09/10 07:42:51;;;;;;;1.02;0.80;;;16.90;99.90;;;19.79;56.06;97538.19;5045149;28;20064;-59
2022/09/10 07:45:20;;;;;;;3.35;1.42;;;16.90;99.90;;;19.79;56.19;97531.94;5046759;28;20045;-59
2022/09/10 07:47:48;;;;;;;1.48;1.23;;;16.90;99.90;;;19.79;56.04;97531.94;5044885;28;20049;-60
2022/09/10 07:50:18;;;;;;;1.38;1.00;;;16.90;99.90;;;19.83;56.24;97533.13;5030142;28;20063;-60
2022/09/10 07:52:50;;;;;;;2.03;1.10;;;17.00;99.90;;;19.85;56.02;97542.69;5029631;28;20251;-60
2022/09/10 07:55:20;;;;;;;2.50;1.17;;;17.00;99.90;;;19.86;56.05;97548.91;5029224;28;20063;-58
2022/09/10 07:57:48;;;;;;;2.53;1.45;;;17.00;99.90;;;19.91;56.01;97543.69;5046181;28;20055;-65
2022/09/10 08:00:17;;;;;;;1.75;1.48;;;17.00;99.90;;;19.71;55.96;97545.69;5029320;28;20053;-62
2022/09/10 08:02:52;;;;;;;2.72;1.05;;;16.90;99.90;;;19.67;55.87;97548.84;5044244;28;20069;-60
2022/09/10 08:05:22;;;;;;;2.88;1.10;;;16.80;99.90;;;19.74;55.95;97551.53;5028334;28;20049;-62
2022/09/10 08:07:55;;;;;;;2.33;1.23;;;16.90;99.90;;;19.88;55.41;97557.63;5029640;28;20069;-63
2022/09/10 08:10:26;;;;;;;1.13;0.90;;;17.00;99.90;;;19.98;55.41;97560.63;5044688;28;20048;-63
2022/09/10 08:12:57;;;;;;;3.30;1.10;;;17.10;99.90;;;20.08;54.85;97559.28;5029563;28;20045;-62
2022/09/10 08:15:25;;;;;;;3.05;1.10;;;17.30;99.90;;;19.82;55.09;97561.22;5028887;28;20053;-62
2022/09/10 08:17:54;;;;;;;3.35;1.50;;;17.10;99.90;;;19.86;54.57;97557.84;5029642;28;20045;-62
2022/09/10 08:20:24;;;;;;;4.43;1.70;;;17.10;99.90;;;19.96;54.81;97554.63;5046947;28;20040;-62
2022/09/10 08:22:52;;;;;;;3.35;1.40;;;17.20;99.90;;;20.11;54.41;97553.44;5044136;28;20048;-62
2022/09/10 08:25:20;;;;;;;3.63;1.35;;;17.30;99.90;;;20.17;54.19;97560.66;5045442;28;20049;-62
2022/09/10 08:27:48;;;;;;;2.92;1.35;;;17.40;99.90;;;20.33;53.66;97554.63;5044442;28;20061;-62
2022/09/10 08:30:16;;;;;;;1.75;1.00;;;17.60;99.90;;;20.43;53.88;97548.69;5044818;28;20676;-62
2022/09/10 08:32:44;;;;;;;3.47;1.55;;;17.70;99.90;;;20.31;54.10;97555.91;5045422;28;20048;-62
2022/09/10 08:35:13;;;;;;;2.15;1.15;;;17.60;99.90;;;20.42;53.55;97558.69;5045183;28;20078;-62
2022/09/10 08:37:42;;;;;;;1.85;1.33;;;17.70;99.90;;;20.55;52.95;97563.13;5045027;28;20045;-62
2022/09/10 08:40:12;;;;;;;3.50;1.70;;;17.80;99.90;;;20.51;52.84;97559.22;5052636;28;20053;-62
2022/09/10 08:42:49;;;;;;;2.75;1.45;;;17.80;99.90;;;20.61;52.95;97564.13;5073769;28;20044;-62
2022/09/10 08:45:32;;;;;;;2.80;1.50;;;17.90;99.90;;;20.67;52.95;97557.78;5061606;28;20723;-62
2022/09/10 08:48:18;;;;;;;2.45;1.50;;;17.80;99.90;;;20.62;52.49;97561.16;5059705;28;20048;-62
2022/09/10 08:51:00;;;;;;;1.80;1.30;;;17.80;99.90;;;20.67;52.25;97560.50;5060693;28;20045;-61
2022/09/10 08:53:49;;;;;;;2.75;1.83;;;17.90;99.70;;;20.62;51.33;97558.47;5076933;28;20053;-62
2022/09/10 08:56:26;;;;;;;2.47;1.20;;;17.90;97.40;;;20.56;51.44;97564.75;5076678;28;20063;-62
2022/09/10 08:59:05;;;;;;;2.20;1.63;;;17.90;98.60;;;20.62;51.30;97566.56;5060294;28;20049;-62
2022/09/10 09:01:51;;;;;;;4.72;1.15;;;17.90;97.00;;;20.50;50.93;97573.78;5071903;28;20040;-62
2022/09/10 09:05:08;;;;;;;2.90;1.30;;;17.90;96.30;;;20.38;50.57;97575.59;5074392;28;20060;-62
2022/09/10 09:07:38;;;;;;;6.57;1.63;;;17.80;93.40;;;20.25;50.45;97571.16;5056536;28;20045;-62
2022/09/10 09:10:23;;;;;;;5.40;1.50;;;17.70;94.00;;;20.31;51.10;97569.44;5058545;28;20041;-62
2022/09/10 09:13:17;;;;;;;4.72;1.50;;;17.80;94.40;;;20.34;51.20;97571.69;5058128;28;20044;-62
2022/09/10 09:16:05;;;;;;;3.08;1.30;;;17.80;95.20;;;20.62;50.23;97571.16;5074285;28;20040;-62
2022/09/10 09:19:35;;;;;;;1.85;1.20;;;18.00;92.10;;;20.46;49.73;97572.59;5065346;28;20049;-62
2022/09/10 09:22:30;;;;;;;3.42;1.42;;;18.00;87.60;;;19.97;50.58;97574.38;5075151;28;20063;-62
2022/09/10 09:25:08;;;;;;;2.67;1.00;;;17.60;90.10;;;20.24;50.10;97567.63;5073568;28;20062;-62
2022/09/10 09:27:40;;;;;;;2.25;1.20;;;17.70;90.60;;;20.39;49.66;97574.53;5062134;28;20056;-62
2022/09/10 09:30:34;;;;;;;4.70;1.40;;;17.80;91.10;;;20.05;48.88;97576.78;5056796;28;20063;-62
2022/09/10 09:33:21;;;;;;;5.97;1.58;;;17.70;87.70;;;20.11;49.91;97570.47;5073901;28;20050;-62
2022/09/10 09:36:03;;;;;;;3.33;1.33;;;17.50;90.00;;;20.21;49.60;97578.88;5035373;28;20044;-62
2022/09/10 09:38:42;;;;;;;;;;;17.60;88.90;;;20.34;49.80;97577.94;5057938;28;20045;-62
2022/09/10 09:41:35;;;;;;;2.95;1.08;;;17.50;90.70;;;20.37;49.71;97579.34;5056515;28;19916;-62
2022/09/10 09:44:28;;;;;;;2.78;1.60;;;17.50;91.00;;;20.33;50.08;97575.44;5067467;28;20060;-62
2022/09/10 09:46:56;;;;;;;4.93;1.92;;;17.50;91.30;;;20.42;49.81;97577.63;5048527;28;20057;-62
2022/09/10 09:49:25;;;;;;;9.50;1.52;;;17.50;91.80;;;20.27;50.16;97577.16;5078988;28;20364;-62
2022/09/10 09:51:56;;;;;;;2.97;1.10;;;17.50;91.00;;;20.13;50.57;97579.19;5064265;28;20365;-62
2022/09/10 09:54:28;;;;;;;4.25;1.48;;;17.30;93.30;;;20.15;50.85;97585.19;5064682;28;20062;-62
2022/09/10 09:57:19;;;;;;;3.80;2.10;;;17.30;94.40;;;20.29;51.32;97582.34;5063145;28;20255;-62
2022/09/10 09:59:50;;;;;;;4.03;1.70;;;17.40;96.80;;;20.31;51.86;97581.06;5065839;28;20052;-62
2022/09/10 10:02:20;;;;;;;3.33;1.50;;;17.40;97.30;;;20.43;51.87;97584.69;5066597;28;20264;-61
2022/09/10 10:05:23;;;;;;;3.00;1.50;;;17.50;98.80;;;20.51;51.87;97577.31;5075834;28;20047;-62
2022/09/10 10:07:51;;;;;;;2.65;1.38;;;17.60;98.10;;;20.43;52.10;97581.97;5079307;28;20044;-62
2022/09/10 10:10:24;;;;;;;2.15;1.63;;;17.60;98.50;;;20.67;51.71;97571.31;5080028;28;20072;-62
2022/09/10 10:12:53;;;;;;;6.47;1.42;;;17.80;97.70;;;20.92;51.70;97570.34;5079747;28;20353;-62
2022/09/10 10:15:39;;;;;;;2.85;1.58;;;18.20;96.50;;;20.99;50.95;97577.31;5079648;28;20349;-62
2022/09/10 10:18:37;;;;;;;2.38;1.08;;;18.20;93.40;;;21.10;51.10;97573.03;5076434;28;20049;-61
2022/09/10 10:21:32;;;;;;;4.07;1.33;;;18.30;92.40;;;21.10;49.70;97583.84;5077159;28;20060;-62
2022/09/10 10:24:00;;;;;;;4.15;1.92;;;18.30;89.20;;;20.99;50.14;97580.03;5079454;28;20060;-62
2022/09/10 10:26:35;;;;;;;2.65;1.70;;;18.20;90.70;;;21.01;49.87;97586.06;5080376;28;20047;-62
2022/09/10 10:29:18;;;;;;;1.48;1.25;;;18.30;88.80;;;21.01;49.47;97579.81;5063831;28;20048;-62
2022/09/10 10:31:48;;;;;;;1.67;1.25;;;18.30;88.10;;;20.91;49.92;97571.41;5078238;28;20050;-62
2022/09/10 10:34:52;;;;;;;2.50;1.20;;;18.10;90.40;;;20.90;49.97;97567.91;5079379;28;20032;-62
2022/09/10 10:38:02;;;;;;;3.65;1.27;;;18.00;90.00;;;20.90;50.26;97567.91;5079756;28;20082;-62
2022/09/10 10:40:42;;;;;;;1.50;1.20;;;18.00;91.40;;;20.97;50.45;97560.50;5075535;28;20052;-62
2022/09/10 10:43:18;;;;;;;2.33;1.30;;;18.20;92.10;;;20.97;50.10;97556.97;5062573;28;20055;-62
2022/09/10 10:46:19;;;;;;;3.10;1.15;;;18.20;90.40;;;21.12;50.39;97557.38;5062580;28;20048;-62
2022/09/10 10:49:26;;;;;;;2.78;1.20;;;18.40;88.50;;;21.01;49.66;97545.47;5031389;28;20061;-62
2022/09/10 10:52:40;;;;;;;4.45;1.75;;;18.30;87.70;;;20.91;48.65;97544.38;5028850;28;20057;-62
2022/09/10 10:55:19;;;;;;;2.38;1.05;;;18.40;82.50;;;21.26;48.80;97543.63;5048729;28;20369;-62